Time;durP1;ratioP1;P1;durP2;ratioP2;P2;SDS_P1;SDS_P2;PMS_P1;PMS_P2;Temp;Humidity;BMP_temperature;BMP_pressure;BME280_temperature;BME280_humidity;BME280_pressure;Samples;Min_cycle;Max_cycle;Signal;HPM_P1;HPM_P2
2022/12/13 00:01:49;;;;;;;39.03;20.27;;;;;;;-3.22;95.14;99906.02;1399402;93;21416;-87
2022/12/13 00:04:16;;;;;;;38.65;20.97;;;;;;;-3.23;95.18;99901.27;1396360;93;22488;-87
2022/12/13 00:06:43;;;;;;;39.40;21.48;;;;;;;-3.23;95.30;99903.86;1406476;93;21562;-87
2022/12/13 00:09:13;;;;;;;36.30;20.52;;;;;;;-3.23;95.29;99907.75;1402066;93;21638;-87
2022/12/13 00:11:39;;;;;;;38.75;20.77;;;;;;;-3.23;95.22;99903.03;1401441;93;21535;-88
2022/12/13 00:14:05;;;;;;;31.37;17.27;;;;;;;-3.21;95.30;99905.09;1404465;93;21446;-87
2022/12/13 00:16:31;;;;;;;38.08;20.12;;;;;;;-3.22;95.55;99909.44;1402852;93;21902;-87
2022/12/13 00:18:59;;;;;;;37.30;18.75;;;;;;;-3.25;95.54;99909.59;1408866;93;21445;-86
2022/12/13 00:21:30;;;;;;;40.70;20.92;;;;;;;-3.25;95.48;99907.00;1402954;93;21475;-85
2022/12/13 00:23:57;;;;;;;38.73;21.02;;;;;;;-3.28;95.59;99907.15;1404914;93;21571;-87
2022/12/13 00:26:31;;;;;;;33.00;18.77;;;;;;;-3.30;95.84;99912.84;1401154;93;21552;-87
2022/12/13 00:29:02;;;;;;;31.70;18.65;;;;;;;-3.30;95.73;99916.73;1403797;93;22302;-87
2022/12/13 00:31:31;;;;;;;39.23;20.65;;;;;;;-3.31;95.75;99907.30;1398708;93;21445;-86
2022/12/13 00:33:59;;;;;;;35.17;18.92;;;;;;;-3.28;95.65;99917.50;1406671;93;22347;-88
2022/12/13 00:36:26;;;;;;;38.30;19.45;;;;;;;-3.29;95.66;99918.39;1398396;93;21305;-87
2022/12/13 00:39:01;;;;;;;36.58;19.12;;;;;;;-3.30;95.91;99923.20;1403713;93;21504;-87
2022/12/13 00:41:34;;;;;;;30.92;17.75;;;;;;;-3.31;95.85;99920.23;1404424;93;21335;-84
2022/12/13 00:44:03;;;;;;;33.30;19.20;;;;;;;-3.31;95.97;99922.83;1405987;93;22422;-85
2022/12/13 00:46:29;;;;;;;26.27;16.95;;;;;;;-3.31;95.91;99927.14;1401942;93;22229;-86
2022/12/13 00:49:00;;;;;;;28.92;17.30;;;;;;;-3.31;95.98;99928.00;1405148;93;21379;-88
2022/12/13 00:51:29;;;;;;;24.05;15.50;;;;;;;-3.31;95.77;99931.88;1414065;93;21393;-86
2022/12/13 00:53:55;;;;;;;25.25;15.95;;;;;;;-3.31;95.74;99934.47;1401843;93;21313;-85
2022/12/13 00:56:25;;;;;;;30.20;16.75;;;;;;;-3.30;95.66;99930.95;1410041;93;21408;-84
2022/12/13 00:58:52;;;;;;;29.37;16.90;;;;;;;-3.31;95.63;99929.30;1408462;93;21438;-85
2022/12/13 01:01:28;;;;;;;27.05;16.15;;;;;;;-3.31;95.63;99938.35;1406986;93;21416;-85
2022/12/13 01:03:56;;;;;;;31.17;17.45;;;;;;;-3.34;95.42;99936.34;1412867;93;21564;-86
2022/12/13 01:06:33;;;;;;;25.32;16.25;;;;;;;-3.37;95.36;99943.78;1406160;93;21482;-86
2022/12/13 01:09:00;;;;;;;29.07;16.70;;;;;;;-3.38;95.57;99941.29;1405306;93;21372;-86
2022/12/13 01:11:26;;;;;;;29.12;16.80;;;;;;;-3.40;95.47;99943.93;1406260;93;21482;-85
2022/12/13 01:13:52;;;;;;;25.62;15.55;;;;;;;-3.47;95.63;99948.56;1410026;93;21616;-85
2022/12/13 01:16:18;;;;;;;25.27;15.65;;;;;;;-3.49;95.48;99944.36;1408843;93;22349;-86
2022/12/13 01:18:44;;;;;;;37.30;18.57;;;;;;;-3.50;95.49;99947.87;1408908;93;21415;-85
2022/12/13 01:21:15;;;;;;;29.57;16.32;;;;;;;-3.52;95.56;99943.21;1405529;93;21386;-84
2022/12/13 01:23:43;;;;;;;33.90;17.90;;;;;;;-3.51;95.52;99942.29;1415881;93;21423;-85
2022/12/13 01:26:16;;;;;;;32.63;17.75;;;;;;;-3.55;95.78;99942.06;1410269;93;22237;-87
2022/12/13 01:28:43;;;;;;;23.25;13.72;;;;;;;-3.56;95.79;99945.56;1408511;93;21608;-84
2022/12/13 01:31:14;;;;;;;24.32;14.18;;;;;;;-3.58;95.72;99946.08;1404033;93;21570;-84
2022/12/13 01:33:41;;;;;;;23.85;12.98;;;;;;;-3.59;96.22;99940.53;1404572;93;22266;-85
2022/12/13 01:36:12;;;;;;;25.72;13.30;;;;;;;-3.60;96.07;99942.72;1405554;93;21350;-84
2022/12/13 01:38:38;;;;;;;22.17;13.55;;;;;;;-3.59;95.90;99941.83;1401656;93;22331;-87
2022/12/13 01:41:05;;;;;;;27.02;15.43;;;;;;;-3.59;96.29;99937.95;1404238;93;21364;-84
2022/12/13 01:43:48;;;;;;;27.25;15.63;;;;;;;-3.62;96.17;99937.63;1403934;93;21313;-84
2022/12/13 01:46:17;;;;;;;32.03;17.40;;;;;;;-3.61;96.05;99946.22;1408019;93;21378;-84
2022/12/13 01:48:58;;;;;;;37.08;18.62;;;;;;;-3.65;96.09;99943.77;1404432;93;21431;-84
2022/12/13 01:51:38;;;;;;;35.38;19.95;;;;;;;-3.66;96.05;99946.41;1406121;93;22354;-84
2022/12/13 01:54:07;;;;;;;35.80;18.57;;;;;;;-3.70;96.07;99956.07;1408888;93;21335;-84
2022/12/13 01:56:42;;;;;;;29.77;15.95;;;;;;;-3.76;96.03;99952.47;1404410;93;22367;-83
2022/12/13 01:59:11;;;;;;;30.30;17.62;;;;;;;-3.77;96.14;99952.52;1403522;93;21556;-85
2022/12/13 02:01:39;;;;;;;28.45;15.65;;;;;;;-3.77;96.08;99957.27;1406780;93;21468;-84
2022/12/13 02:04:06;;;;;;;26.07;14.20;;;;;;;-3.78;96.14;99953.44;1412448;93;21541;-84
2022/12/13 02:06:38;;;;;;;30.55;18.60;;;;;;;-3.81;96.76;99953.58;1404115;93;21358;-84
2022/12/13 02:09:06;;;;;;;27.70;15.28;;;;;;;-3.83;96.58;99953.63;1396335;93;21526;-86
2022/12/13 02:11:35;;;;;;;28.25;15.85;;;;;;;-3.84;96.73;99958.43;1411865;93;21666;-84
2022/12/13 02:14:02;;;;;;;28.95;15.85;;;;;;;-3.85;96.73;99961.94;1406737;93;21437;-84
2022/12/13 02:17:02;;;;;;;26.65;14.35;;;;;;;-3.86;97.00;99961.07;1406641;93;22318;-82
2022/12/13 02:20:07;;;;;;;29.67;16.00;;;;;;;-3.87;97.02;99961.16;1402172;93;21482;-84
2022/12/13 02:23:19;;;;;;;31.50;18.05;;;;;;;-3.87;97.00;99961.98;1402306;93;22377;-85
2022/12/13 02:26:35;;;;;;;31.73;17.90;;;;;;;-3.90;97.17;99962.58;1400456;93;21350;-85
2022/12/13 02:29:27;;;;;;;22.40;13.60;;;;;;;-3.91;96.98;99966.09;1405577;93;21593;-85
2022/12/13 02:32:17;;;;;;;26.90;14.35;;;;;;;-3.94;97.17;99971.36;1400226;93;22458;-86
2022/12/13 02:34:48;;;;;;;28.80;14.58;;;;;;;-3.96;97.11;99977.08;1404956;93;21596;-87
2022/12/13 02:37:21;;;;;;;;;;;;;;;-3.99;96.81;99978.50;1419276;93;21630;-88
2022/12/13 02:39:55;;;;;;;27.75;14.90;;;;;;;-4.00;96.72;99980.68;1406460;93;20276;-86
2022/12/13 02:42:36;;;;;;;23.60;14.40;;;;;;;-4.03;96.72;99975.64;1403952;93;21519;-88
2022/12/13 02:45:11;;;;;;;18.32;11.43;;;;;;;-4.07;96.60;99980.12;1409387;93;21673;-89
2022/12/13 02:47:40;;;;;;;28.15;14.83;;;;;;;-4.09;96.69;99985.80;1402215;93;22444;-89
2022/12/13 02:50:08;;;;;;;29.32;15.75;;;;;;;-4.14;96.86;99989.05;1411406;93;21423;-91
2022/12/13 02:52:36;;;;;;;32.93;19.12;;;;;;;-4.16;96.92;99993.44;1410682;93;22149;-90
2022/12/13 02:55:09;;;;;;;29.20;15.48;;;;;;;-4.18;96.78;99988.32;1406238;93;22179;-90
2022/12/13 02:57:40;;;;;;;29.40;16.67;;;;;;;-4.20;96.80;99999.20;1404924;93;21600;-90
2022/12/13 03:00:18;;;;;;;27.00;15.68;;;;;;;-4.24;97.18;100000.67;1414869;93;21689;-88
2022/12/13 03:03:07;;;;;;;32.53;17.65;;;;;;;-4.24;96.88;99995.05;1407177;93;21423;-91
2022/12/13 03:09:07;;;;;;;45.63;18.32;;;;;;;-4.24;96.64;100007.97;1399282;93;22354;-91
2022/12/13 03:14:49;;;;;;;30.35;16.30;;;;;;;-4.29;96.38;100011.19;1404088;93;22348;-92
2022/12/13 03:17:19;;;;;;;26.80;16.00;;;;;;;-4.34;96.09;100007.52;1404516;93;22310;-87
2022/12/13 03:19:45;;;;;;;28.83;15.20;;;;;;;-4.37;96.13;100007.65;1404502;93;21483;-86
2022/12/13 03:22:11;;;;;;;28.90;17.10;;;;;;;-4.39;96.28;100008.61;1405092;93;22333;-89
2022/12/13 03:24:37;;;;;;;28.17;15.35;;;;;;;-4.40;96.18;100010.79;1410657;93;21403;-88
2022/12/13 03:27:04;;;;;;;28.97;16.57;;;;;;;-4.41;96.21;100011.70;1403457;93;21518;-88
2022/12/13 03:29:29;;;;;;;29.82;15.55;;;;;;;-4.41;96.36;100009.12;1406829;93;22529;-89
2022/12/13 03:31:55;;;;;;;31.37;18.57;;;;;;;-4.43;96.21;100010.48;1403786;93;21401;-88
2022/12/13 03:34:22;;;;;;;28.75;17.30;;;;;;;-4.45;96.06;100010.99;1405377;93;21438;-88
2022/12/13 03:36:48;;;;;;;23.07;14.67;;;;;;;-4.46;96.16;100009.33;1401782;93;21438;-88
2022/12/13 03:39:14;;;;;;;30.95;16.87;;;;;;;-4.47;95.88;100017.13;1405263;93;21784;-86
2022/12/13 03:41:40;;;;;;;30.60;17.83;;;;;;;-4.50;95.82;100013.37;1406016;93;21387;-85
2022/12/13 03:44:07;;;;;;;35.37;18.40;;;;;;;-4.53;95.86;100015.62;1409609;93;22412;-86
2022/12/13 03:46:33;;;;;;;28.95;17.20;;;;;;;-4.54;95.86;100021.70;1406740;93;21724;-88
2022/12/13 03:49:00;;;;;;;33.88;19.02;;;;;;;-4.57;96.06;100022.67;1406566;93;21453;-88
2022/12/13 03:51:26;;;;;;;33.38;20.30;;;;;;;-4.60;96.06;100018.09;1411176;93;21415;-87
2022/12/13 03:53:52;;;;;;;28.85;17.90;;;;;;;-4.61;96.04;100021.09;1403455;93;21490;-87
2022/12/13 03:56:18;;;;;;;31.83;18.57;;;;;;;-4.61;96.15;100022.38;1405087;93;21438;-82
2022/12/13 03:58:44;;;;;;;34.83;17.55;;;;;;;-4.61;96.15;100027.55;1405119;93;21731;-86
2022/12/13 04:01:14;;;;;;;31.82;18.30;;;;;;;-4.61;96.05;100028.84;1406851;93;21401;-87
2022/12/13 04:03:44;;;;;;;33.40;19.40;;;;;;;-4.62;95.99;100031.05;1404920;93;21528;-86
2022/12/13 04:06:13;;;;;;;35.35;18.82;;;;;;;-4.66;95.88;100038.53;1405945;93;22564;-86
2022/12/13 04:08:39;;;;;;;34.53;19.42;;;;;;;-4.71;95.78;100039.63;1408041;93;21468;-82
2022/12/13 04:13:53;;;;;;;40.45;19.30;;;;;;;-4.75;95.83;100045.33;1401228;93;22415;-85
2022/12/13 04:16:21;;;;;;;32.67;17.17;;;;;;;-4.76;96.01;100044.95;1396644;93;21386;-87
2022/12/13 04:18:48;;;;;;;31.23;17.48;;;;;;;-4.72;96.18;100048.25;1406659;93;21386;-87
2022/12/13 04:21:14;;;;;;;31.68;17.60;;;;;;;-4.78;95.87;100054.03;1410354;93;22296;-85
2022/12/13 04:23:41;;;;;;;31.62;18.10;;;;;;;-4.78;95.93;100045.45;1409733;93;21895;-86
2022/12/13 04:26:07;;;;;;;34.23;19.77;;;;;;;-4.84;95.87;100049.56;1409074;93;21424;-89
2022/12/13 04:28:33;;;;;;;34.47;18.57;;;;;;;-4.90;95.81;100053.68;1405691;93;21342;-86
2022/12/13 04:30:59;;;;;;;30.70;18.30;;;;;;;-4.91;95.80;100057.17;1405539;93;21754;-84
2022/12/13 04:33:26;;;;;;;31.17;18.15;;;;;;;-4.93;95.99;100051.22;1408155;93;22406;-87
2022/12/13 04:35:52;;;;;;;31.33;18.37;;;;;;;-4.92;96.16;100053.76;1399311;93;21498;-87
2022/12/13 04:38:19;;;;;;;30.12;18.17;;;;;;;-4.90;96.15;100053.23;1387510;93;21520;-86
2022/12/13 04:40:45;;;;;;;29.77;16.27;;;;;;;-4.87;96.17;100053.56;1409162;93;21394;-87
2022/12/13 04:43:11;;;;;;;29.57;18.07;;;;;;;-4.85;96.13;100058.22;1406429;93;21327;-86
2022/12/13 04:45:39;;;;;;;29.42;16.52;;;;;;;-4.84;96.04;100056.02;1392931;93;21453;-89
2022/12/13 04:48:05;;;;;;;28.63;16.77;;;;;;;-4.84;95.98;100056.02;1405349;93;21357;-88
2022/12/13 04:50:32;;;;;;;29.10;17.73;;;;;;;-4.83;96.02;100059.02;1410185;93;21850;-85
2022/12/13 04:52:58;;;;;;;34.30;18.82;;;;;;;-4.84;95.94;100063.31;1403394;93;21527;-87
2022/12/13 04:55:24;;;;;;;31.12;18.37;;;;;;;-4.85;95.81;100063.39;1408070;93;21372;-85
2022/12/13 04:57:50;;;;;;;42.15;22.90;;;;;;;-4.91;95.76;100068.79;1404661;93;21415;-87
2022/12/13 05:00:17;;;;;;;30.15;17.55;;;;;;;-4.99;95.61;100062.16;1412445;93;21438;-84
2022/12/13 05:02:43;;;;;;;31.23;17.92;;;;;;;-5.04;95.60;100067.11;1405945;93;21578;-85
2022/12/13 05:05:10;;;;;;;37.50;17.77;;;;;;;-5.11;95.73;100067.80;1412543;93;22135;-86
2022/12/13 05:07:37;;;;;;;34.88;20.20;;;;;;;-5.15;95.67;100066.24;1410612;93;21446;-86
2022/12/13 05:10:04;;;;;;;33.02;18.82;;;;;;;-5.18;95.69;100066.78;1405945;93;21357;-88
2022/12/13 05:12:30;;;;;;;32.95;19.12;;;;;;;-5.18;95.88;100070.20;1402178;93;22325;-88
2022/12/13 05:14:56;;;;;;;36.45;18.30;;;;;;;-5.18;96.03;100070.20;1412599;93;21401;-86
2022/12/13 05:17:22;;;;;;;56.30;28.85;;;;;;;-5.16;96.05;100070.16;1395091;93;21637;-88
2022/12/13 05:19:49;;;;;;;61.63;29.52;;;;;;;-5.15;96.19;100070.11;1438239;90;21444;-87
2022/12/13 05:22:15;;;;;;;99.95;39.92;;;;;;;-5.14;96.37;100068.37;1447968;90;22228;-88
2022/12/13 05:24:43;;;;;;;98.82;41.05;;;;;;;-5.14;96.05;100065.78;1438230;90;21378;-85
2022/12/13 05:27:10;;;;;;;78.45;31.30;;;;;;;-5.17;95.98;100071.90;1443444;90;21436;-88
2022/12/13 05:29:37;;;;;;;68.55;29.45;;;;;;;-5.20;96.16;100073.77;1443534;90;22346;-89
2022/12/13 05:32:04;;;;;;;54.65;25.35;;;;;;;-5.23;96.26;100072.13;1446540;90;21414;-87
2022/12/13 05:34:30;;;;;;;46.23;24.27;;;;;;;-5.25;96.49;100071.34;1448367;90;21525;-87
2022/12/13 05:36:56;;;;;;;50.03;25.30;;;;;;;-5.27;96.38;100073.95;1423301;92;21481;-86
2022/12/13 05:39:22;;;;;;;43.90;25.08;;;;;;;-5.26;96.24;100083.86;1418061;92;21493;-85
2022/12/13 05:41:48;;;;;;;44.23;25.20;;;;;;;-5.27;96.20;100080.86;1451061;90;22266;-86
2022/12/13 05:44:14;;;;;;;35.70;20.65;;;;;;;-5.28;96.18;100086.93;1448646;90;21642;-88
2022/12/13 05:46:40;;;;;;;30.68;18.10;;;;;;;-5.30;96.49;100084.84;1447581;90;22292;-88
2022/12/13 05:49:06;;;;;;;34.45;18.35;;;;;;;-5.33;96.64;100084.50;1445424;90;21555;-86
2022/12/13 05:51:32;;;;;;;26.70;15.83;;;;;;;-5.34;96.52;100087.16;1450495;90;21497;-85
2022/12/13 05:53:58;;;;;;;32.10;19.17;;;;;;;-5.32;96.55;100085.34;1448377;90;21692;-85
2022/12/13 05:56:24;;;;;;;48.98;23.95;;;;;;;-5.31;96.76;100082.72;1447345;90;21698;-88
2022/12/13 05:58:52;;;;;;;56.60;24.63;;;;;;;-5.30;96.98;100086.13;1446193;90;21384;-88
2022/12/13 06:01:19;;;;;;;65.17;28.05;;;;;;;-5.30;96.60;100087.42;1423930;92;21479;-87
2022/12/13 06:03:45;;;;;;;66.55;28.70;;;;;;;-5.26;96.82;100091.59;1411194;92;21412;-88
2022/12/13 06:06:12;;;;;;;71.07;29.18;;;;;;;-5.24;96.82;100096.23;1451748;90;21399;-87
2022/12/13 06:08:39;;;;;;;70.90;32.10;;;;;;;-5.21;96.82;100098.69;1443326;90;21877;-89
2022/12/13 06:11:06;;;;;;;64.60;28.20;;;;;;;-5.21;96.74;100099.98;1450146;90;21370;-86
2022/12/13 06:13:33;;;;;;;66.65;27.25;;;;;;;-5.21;96.61;100097.41;1445931;90;22367;-89
2022/12/13 06:16:06;;;;;;;54.30;23.92;;;;;;;-5.21;96.67;100098.69;1439032;90;22338;-87
2022/12/13 06:18:34;;;;;;;48.17;24.20;;;;;;;-5.21;96.49;100102.56;1419554;92;21392;-90
2022/12/13 06:21:05;;;;;;;56.45;28.17;;;;;;;-5.22;96.67;100110.76;1454138;90;21414;-87
2022/12/13 06:23:34;;;;;;;58.15;28.90;;;;;;;-5.21;96.75;100115.46;1447781;90;21384;-88
2022/12/13 06:26:06;;;;;;;43.30;23.02;;;;;;;-5.16;96.91;100118.72;1451681;90;21413;-85
2022/12/13 06:28:32;;;;;;;63.08;22.95;;;;;;;-5.14;96.80;100120.81;1452958;90;21427;-87
2022/12/13 06:31:03;;;;;;;34.05;19.67;;;;;;;-5.11;96.75;100125.86;1454316;90;21481;-86
2022/12/13 06:33:34;;;;;;;35.52;20.08;;;;;;;-5.04;96.98;100126.47;1415985;92;21653;-87
2022/12/13 06:35:58;;;;;;;34.53;19.57;;;;;;;-4.95;97.18;100129.99;1452794;90;21572;-83
2022/12/13 06:38:25;;;;;;;47.65;22.67;;;;;;;-4.87;97.22;100134.88;1443434;90;22197;-84
2022/12/13 06:40:51;;;;;;;70.80;31.60;;;;;;;-4.78;97.20;100134.53;1446517;90;21429;-83
2022/12/13 06:43:19;;;;;;;84.17;38.73;;;;;;;-4.74;96.94;100139.98;1433968;90;21399;-83
2022/12/13 06:45:46;;;;;;;82.42;36.73;;;;;;;-4.65;96.79;100138.80;1443345;90;21428;-84
2022/12/13 06:48:12;;;;;;;81.45;36.73;;;;;;;-4.63;96.57;100133.10;1445029;90;21414;-84
2022/12/13 06:50:38;;;;;;;69.72;31.30;;;;;;;-4.58;96.49;100141.06;1445755;90;22302;-84
2022/12/13 06:53:04;;;;;;;78.07;37.67;;;;;;;-4.52;96.28;100144.32;1452913;90;21385;-84
2022/12/13 06:55:30;;;;;;;67.90;32.93;;;;;;;-4.47;96.30;100147.58;1447002;90;21482;-82
2022/12/13 06:57:57;;;;;;;58.48;28.95;;;;;;;-4.46;96.35;100136.33;1446302;90;22063;-84
2022/12/13 07:00:23;;;;;;;54.33;28.47;;;;;;;-4.29;96.49;100150.72;1448764;90;21414;-85
2022/12/13 07:02:54;;;;;;;56.30;28.52;;;;;;;-4.24;96.24;100155.27;1448095;90;21392;-86
2022/12/13 07:05:21;;;;;;;50.10;27.35;;;;;;;-4.17;96.23;100150.69;1442346;90;21606;-85
2022/12/13 07:07:47;;;;;;;76.85;31.50;;;;;;;-4.12;95.76;100152.64;1441378;90;21585;-88
2022/12/13 07:10:13;;;;;;;59.63;29.50;;;;;;;-4.13;95.40;100162.59;1441892;90;21414;-85
2022/12/13 07:12:39;;;;;;;50.88;27.90;;;;;;;-4.14;95.28;100161.77;1445277;89;22308;-87
2022/12/13 07:15:08;;;;;;;39.15;21.82;;;;;;;-4.06;95.61;100165.77;1449129;90;22479;-83
2022/12/13 07:17:34;;;;;;;36.65;20.68;;;;;;;-4.02;95.43;100169.94;1421020;92;21539;-87
2022/12/13 07:20:06;;;;;;;45.55;26.45;;;;;;;-3.96;95.46;100168.39;1416622;92;21562;-88
2022/12/13 07:22:32;;;;;;;43.15;23.62;;;;;;;-3.93;95.32;100164.39;1424157;92;21398;-86
2022/12/13 07:24:58;;;;;;;42.25;23.98;;;;;;;-3.86;95.51;100165.80;1448194;90;22161;-86
2022/12/13 07:27:25;;;;;;;46.27;24.57;;;;;;;-3.78;95.52;100170.67;1429810;90;21414;-88
2022/12/13 07:29:51;;;;;;;34.03;20.17;;;;;;;-3.75;95.12;100170.55;1447451;90;21601;-88
2022/12/13 07:32:17;;;;;;;35.27;21.47;;;;;;;-3.70;95.12;100173.33;1449860;90;22221;-80
2022/12/13 07:34:43;;;;;;;34.40;21.55;;;;;;;-3.69;94.63;100173.70;1446203;90;21697;-82
2022/12/13 07:37:09;;;;;;;33.47;21.80;;;;;;;-3.68;94.57;100181.88;1453079;90;22272;-81
2022/12/13 07:39:35;;;;;;;31.12;19.55;;;;;;;-3.67;94.39;100178.38;1434951;90;21466;-81
2022/12/13 07:42:04;;;;;;;36.80;21.40;;;;;;;-3.64;94.57;100182.13;1442767;90;22733;-88
2022/12/13 07:44:30;;;;;;;34.50;20.92;;;;;;;-3.60;94.26;100185.87;1452708;90;21377;-87
2022/12/13 07:46:56;;;;;;;35.50;20.63;;;;;;;-3.60;94.09;100185.42;1434123;89;21457;-88
2022/12/13 07:49:22;;;;;;;30.40;17.87;;;;;;;-3.51;94.32;100186.78;1448999;90;21452;-88
2022/12/13 07:51:48;;;;;;;36.53;21.97;;;;;;;-3.51;94.32;100186.78;1446602;90;21905;-84
2022/12/13 07:54:14;;;;;;;32.95;19.92;;;;;;;-3.46;94.45;100190.02;1410710;92;22279;-88
2022/12/13 07:56:40;;;;;;;32.83;19.95;;;;;;;-3.42;94.05;100191.14;1407749;93;21519;-88
2022/12/13 07:59:07;;;;;;;31.87;18.47;;;;;;;-3.34;94.05;100197.26;1405879;93;21474;-87
2022/12/13 08:01:33;;;;;;;36.30;22.17;;;;;;;-3.31;93.92;100197.16;1390503;93;21298;-88
2022/12/13 08:04:01;;;;;;;36.15;21.55;;;;;;;-3.22;94.28;100207.11;1406230;93;21454;-87
2022/12/13 08:06:27;;;;;;;39.45;24.90;;;;;;;-3.14;94.35;100211.10;1401930;93;21467;-88
2022/12/13 08:08:57;;;;;;;35.33;22.67;;;;;;;-3.03;94.71;100208.89;1404899;93;21401;-90
2022/12/13 08:11:23;;;;;;;38.20;23.30;;;;;;;-2.89;94.66;100208.30;1410364;93;21356;-87
2022/12/13 08:13:50;;;;;;;39.63;22.17;;;;;;;-2.76;94.33;100215.92;1404833;93;21491;-85
2022/12/13 08:16:16;;;;;;;38.92;22.82;;;;;;;-2.63;94.59;100216.20;1405531;93;21468;-88
2022/12/13 08:18:46;;;;;;;35.45;21.62;;;;;;;-2.49;93.79;100217.72;1405193;93;21488;-87
2022/12/13 08:21:14;;;;;;;43.20;23.90;;;;;;;-2.41;93.22;100217.38;1401707;93;22305;-87
2022/12/13 08:23:41;;;;;;;42.78;25.35;;;;;;;-2.32;92.99;100211.30;1322178;94;21335;-89
2022/12/13 08:26:08;;;;;;;42.10;23.27;;;;;;;-2.22;93.18;100213.45;1335846;93;22201;-84
2022/12/13 08:28:36;;;;;;;42.83;24.87;;;;;;;-2.15;91.86;100209.68;1341549;93;21409;-86
2022/12/13 08:31:13;;;;;;;37.95;23.73;;;;;;;-2.04;92.86;100219.09;1439867;93;21401;-90
2022/12/13 08:33:42;;;;;;;41.60;24.47;;;;;;;-1.90;92.78;100221.00;1393895;93;21416;-85
2022/12/13 08:36:17;;;;;;;42.43;27.15;;;;;;;-1.79;92.58;100221.80;1402873;93;21974;-88
2022/12/13 08:38:44;;;;;;;38.07;23.27;;;;;;;-1.66;91.93;100221.13;1475249;93;21254;-90
2022/12/13 08:41:11;;;;;;;41.70;23.33;;;;;;;-1.58;90.26;100224.66;1341434;93;21574;-88
2022/12/13 08:43:38;;;;;;;45.03;25.83;;;;;;;-1.64;87.87;100224.93;1322993;94;21427;-85
2022/12/13 08:46:05;;;;;;;38.87;24.83;;;;;;;-1.69;88.29;100218.69;1324006;94;22446;-85
2022/12/13 08:48:31;;;;;;;45.77;27.40;;;;;;;-1.58;89.52;100220.77;1335769;93;21514;-91
2022/12/13 08:51:07;;;;;;;38.77;23.57;;;;;;;-1.55;89.21;100223.21;1341469;93;22520;-90
2022/12/13 08:53:36;;;;;;;45.67;26.40;;;;;;;-1.52;88.82;100220.46;1482411;93;21613;-89
2022/12/13 08:56:10;;;;;;;43.47;27.23;;;;;;;-1.56;87.68;100219.38;1481868;93;21628;-88
2022/12/13 08:58:38;;;;;;;45.43;26.00;;;;;;;-1.68;87.38;100220.82;1482459;93;21471;-89
2022/12/13 09:01:13;;;;;;;49.23;27.27;;;;;;;-1.72;88.15;100229.22;1335313;93;21595;-91
2022/12/13 09:03:45;;;;;;;45.78;27.82;;;;;;;-1.74;87.71;100232.80;1472788;93;21551;-90
2022/12/13 09:06:15;;;;;;;43.43;28.03;;;;;;;-1.76;88.51;100225.53;1342454;92;21416;-89
2022/12/13 09:08:43;;;;;;;46.42;28.07;;;;;;;-1.77;88.70;100230.36;1351989;90;21202;-80
2022/12/13 09:11:11;;;;;;;56.53;30.23;;;;;;;-1.77;89.28;100231.19;1389698;93;21454;-90
2022/12/13 09:13:39;;;;;;;43.73;25.77;;;;;;;-1.71;89.70;100227.00;1403520;93;21680;-90
2022/12/13 09:16:08;;;;;;;34.80;22.73;;;;;;;-1.70;89.17;100228.66;1405427;93;22385;-86
2022/12/13 09:18:34;;;;;;;46.07;25.87;;;;;;;-1.63;89.46;100229.23;1400318;93;21676;-89
2022/12/13 09:21:06;;;;;;;36.80;23.10;;;;;;;-1.60;89.84;100229.91;1429264;90;21783;-89
2022/12/13 09:23:32;;;;;;;44.67;26.33;;;;;;;-1.51;88.40;100224.73;1448877;90;21617;-88
2022/12/13 09:26:00;;;;;;;45.10;25.67;;;;;;;-1.44;88.83;100228.72;1447643;90;21609;-90
2022/12/13 09:28:28;;;;;;;34.30;21.43;;;;;;;-1.40;87.48;100225.50;1443368;90;21458;-84
2022/12/13 09:30:55;;;;;;;32.20;21.93;;;;;;;-1.38;86.99;100231.46;1347614;92;21407;-85
2022/12/13 09:33:23;;;;;;;39.13;23.83;;;;;;;-1.36;86.39;100225.25;1347809;92;21528;-90
2022/12/13 09:35:51;;;;;;;40.83;21.03;;;;;;;-1.27;86.15;100225.25;1340838;93;22576;-87
2022/12/13 09:38:17;;;;;;;35.67;22.63;;;;;;;-1.10;85.87;100218.36;1335451;93;21465;-88
2022/12/13 09:40:46;;;;;;;33.33;21.67;;;;;;;-0.91;85.72;100219.94;1336307;93;21598;-88
2022/12/13 09:43:23;;;;;;;31.77;19.80;;;;;;;-0.77;84.11;100215.80;1333875;93;21733;-89
2022/12/13 09:45:50;;;;;;;27.03;18.17;;;;;;;-0.43;81.85;100210.94;1474576;93;21629;-90
2022/12/13 09:48:21;;;;;;;27.43;18.33;;;;;;;0.12;79.86;100209.66;1482526;93;21450;-83
2022/12/13 09:50:48;;;;;;;28.77;18.48;;;;;;;0.02;78.56;100211.08;1322500;94;21547;-89
2022/12/13 09:53:18;;;;;;;25.77;17.50;;;;;;;-0.01;80.29;100206.42;1335494;93;21262;-88
2022/12/13 09:55:49;;;;;;;25.60;17.77;;;;;;;-0.05;77.84;100207.53;1333514;93;21658;-85
2022/12/13 09:58:22;;;;;;;22.30;15.88;;;;;;;0.14;78.90;100204.72;1482698;93;21573;-84
2022/12/13 10:00:53;;;;;;;26.47;17.93;;;;;;;0.02;78.39;100209.78;1348143;93;21379;-84
2022/12/13 10:03:21;;;;;;;;;;;;;;;-0.04;79.13;100210.50;1484893;93;22434;-89
2022/12/13 10:06:00;;;;;;;28.20;18.03;;;;;;;-0.15;78.74;100217.22;1335295;93;20350;-88
2022/12/13 10:08:37;;;;;;;29.03;18.50;;;;;;;-0.31;79.15;100220.66;1468429;92;21673;-88
2022/12/13 10:11:04;;;;;;;29.80;18.10;;;;;;;-0.41;80.10;100206.47;1473871;93;21464;-89
2022/12/13 10:14:09;;;;;;;26.93;18.03;;;;;;;-0.35;81.05;100212.64;1402729;93;21735;-88
2022/12/13 10:20:35;;;;;;;31.53;18.90;;;;;;;-0.39;80.60;100211.60;1398814;91;21747;-86
2022/12/13 10:27:15;;;;;;;46.40;33.13;;;;;;;-0.42;79.50;100214.38;1400865;91;21799;-88
2022/12/13 10:30:13;;;;;;;34.43;25.27;;;;;;;-0.44;80.26;100209.24;1403825;93;22340;-90
2022/12/13 10:32:56;;;;;;;26.97;16.97;;;;;;;-0.42;80.44;100207.88;1400106;93;21590;-88
2022/12/13 10:35:37;;;;;;;30.33;18.53;;;;;;;-0.28;79.98;100214.46;1399200;93;21762;-89
2022/12/13 10:38:20;;;;;;;29.12;20.20;;;;;;;-0.09;80.17;100207.30;1402530;93;21785;-87
2022/12/13 10:40:49;;;;;;;29.23;20.47;;;;;;;0.27;79.74;100207.48;1411964;92;21597;-89
2022/12/13 10:43:22;;;;;;;28.90;18.90;;;;;;;0.56;78.72;100207.57;1413181;92;23104;-87
2022/12/13 10:46:00;;;;;;;28.47;19.50;;;;;;;1.27;77.14;100208.95;1415166;92;21793;-84
2022/12/13 10:48:50;;;;;;;22.87;16.10;;;;;;;1.27;77.14;100208.95;1413638;92;21918;-87
2022/12/13 10:51:21;;;;;;;23.20;17.27;;;;;;;1.33;72.91;100198.15;1417213;92;23105;-86
2022/12/13 10:53:57;;;;;;;22.42;15.98;;;;;;;1.52;74.61;100199.61;1409465;90;22030;-90
2022/12/13 10:56:36;;;;;;;27.67;18.93;;;;;;;1.57;72.30;100194.95;1527403;90;22238;-85
2022/12/13 10:59:13;;;;;;;25.07;17.47;;;;;;;1.32;72.32;100189.97;1479307;92;21991;-84
2022/12/13 11:01:39;;;;;;;27.03;18.47;;;;;;;1.12;73.32;100192.48;1357884;92;23008;-88
2022/12/13 11:04:26;;;;;;;28.23;17.97;;;;;;;0.82;73.08;100187.33;1492463;92;21997;-86
2022/12/13 11:06:52;;;;;;;24.57;16.63;;;;;;;0.64;74.17;100200.16;1466877;93;22363;-87
2022/12/13 11:09:34;;;;;;;30.83;18.93;;;;;;;0.51;75.07;100195.27;1482441;93;21868;-88
2022/12/13 11:12:14;;;;;;;33.78;20.57;;;;;;;0.37;75.27;100189.09;1339161;93;21792;-89
2022/12/13 11:14:54;;;;;;;29.70;19.50;;;;;;;0.21;75.96;100183.94;1482453;93;21359;-88
2022/12/13 11:17:23;;;;;;;25.95;16.42;;;;;;;0.21;76.62;100189.61;1348088;93;21652;-85
2022/12/13 11:20:00;;;;;;;29.90;18.17;;;;;;;0.06;76.03;100186.55;1333401;93;21471;-85
2022/12/13 11:22:30;;;;;;;25.43;17.00;;;;;;;-0.05;76.45;100188.02;1476773;93;22658;-86
2022/12/13 11:25:08;;;;;;;27.42;18.62;;;;;;;-0.11;77.24;100187.06;1482268;90;21794;-80
2022/12/13 11:28:04;;;;;;;27.47;18.20;;;;;;;-0.10;77.73;100182.69;1399990;88;22668;-88
2022/12/13 11:30:47;;;;;;;28.57;17.90;;;;;;;-0.12;77.35;100178.86;1449364;89;23300;-90
2022/12/13 11:34:08;;;;;;;24.37;16.57;;;;;;;-0.22;77.59;100179.01;1446048;87;21779;-86
2022/12/13 11:37:03;;;;;;;26.47;18.33;;;;;;;-0.22;77.57;100179.48;1451092;89;21669;-91
2022/12/13 11:39:33;;;;;;;31.43;14.80;;;;;;;-0.29;78.36;100180.25;1469555;88;21657;-89
2022/12/13 11:42:21;;;;;;;20.90;14.43;;;;;;;-0.34;77.16;100183.59;1469658;88;21647;-88
2022/12/13 11:45:11;;;;;;;25.90;14.77;;;;;;;-0.48;77.42;100182.58;1468163;88;22105;-87